PT-0102 weather

Cascais Marina Heliport
Cascais, Lisbon District, Portugal

Public forecast

Using degrees Celsius for public forecast. Weather courtesy of forecast.io.

Closest aviation weather report (METAR) to Cascais Marina Heliport

Closest report is Cascais Airport, 3.4 nm (6.2 km) NE. Retrieved 2020/07/12 09:30 UTC (0 seconds ago):

LPCS 120930Z VRB04KT CAVOK 24/17 Q1015

Closest aviation forecast (TAF) to Cascais Marina Heliport

Forecast is more than 12 hours old.

Closest forecast is Sintra Air Base, 9.0 nm (16.6 km) NNE. Retrieved 2020/07/09 15:00 UTC (3 days ago):

TAF LPST 091401Z 0915/0924 33012KT 9999 SCT010 TEMPO 0915/0917 4000 BR BKN008 TEMPO 0915/0924 34015G28KT